Time;durP1;ratioP1;P1;durP2;ratioP2;P2;SDS_P1;SDS_P2;PMS_P1;PMS_P2;Temp;Humidity;BMP_temperature;BMP_pressure;BME280_temperature;BME280_humidity;BME280_pressure;Samples;Min_cycle;Max_cycle;Signal;HPM_P1;HPM_P2
2022/05/18 00:01:51;;;;;;;11.17;10.47;;;;;;;14.96;97.36;92717.28;5076884;28;21220;-74
2022/05/18 00:04:16;;;;;;;11.80;11.00;;;;;;;14.98;94.28;92709.84;5073549;28;20161;-73
2022/05/18 00:06:42;;;;;;;11.60;10.87;;;;;;;14.93;92.38;92718.66;5079669;28;20262;-74
2022/05/18 00:09:07;;;;;;;12.60;11.80;;;;;;;14.84;94.51;92699.44;5077532;28;20211;-74
2022/05/18 00:11:33;;;;;;;12.23;11.53;;;;;;;14.90;91.71;92705.31;5078638;28;20232;-74
2022/05/18 00:13:59;;;;;;;11.43;10.73;;;;;;;14.91;95.59;92696.38;5077521;28;22102;-74
2022/05/18 00:16:26;;;;;;;11.50;10.63;;;;;;;14.88;97.18;92703.00;5079054;28;20232;-74
2022/05/18 00:18:52;;;;;;;11.53;10.77;;;;;;;14.91;94.92;92704.25;5075023;28;20187;-73
2022/05/18 00:21:18;;;;;;;12.13;11.20;;;;;;;14.73;94.56;92697.34;5079236;28;20224;-74
2022/05/18 00:23:44;;;;;;;10.97;10.37;;;;;;;14.72;96.06;92693.97;5072503;28;20181;-74
2022/05/18 00:26:10;;;;;;;11.53;10.73;;;;;;;14.80;97.50;92702.97;5077582;28;20244;-74
2022/05/18 00:28:36;;;;;;;11.23;10.47;;;;;;;14.63;96.96;92698.38;5076639;28;20181;-73
2022/05/18 00:31:02;;;;;;;12.23;11.43;;;;;;;14.70;99.39;92703.22;5076649;28;20232;-73
2022/05/18 00:33:28;;;;;;;11.77;11.07;;;;;;;14.67;97.51;92695.94;5077260;28;20213;-73
2022/05/18 00:35:56;;;;;;;11.70;10.90;;;;;;;14.56;94.55;92711.16;5077758;28;20295;-74
2022/05/18 00:38:22;;;;;;;12.73;11.73;;;;;;;14.61;92.51;92702.38;5073970;28;20186;-74
2022/05/18 00:40:49;;;;;;;11.70;11.00;;;;;;;14.70;92.45;92714.50;5078181;28;20232;-74
2022/05/18 00:43:39;;;;;;;13.23;12.30;;;;;;;14.70;97.50;92709.25;5076608;28;20193;-74
2022/05/18 00:46:07;;;;;;;11.10;10.40;;;;;;;14.51;96.06;92707.91;5066523;28;20225;-74
2022/05/18 00:48:33;;;;;;;10.93;10.20;;;;;;;14.58;93.11;92716.91;5081718;28;20196;-73
2022/05/18 00:51:03;;;;;;;10.30;9.67;;;;;;;14.54;91.40;92721.19;5080692;28;20232;-74
2022/05/18 00:53:37;;;;;;;10.70;9.97;;;;;;;14.57;89.18;92712.72;5079335;28;20228;-74
2022/05/18 00:56:08;;;;;;;9.70;9.20;;;;;;;14.70;87.55;92717.13;5075846;28;20772;-74
2022/05/18 00:58:37;;;;;;;10.77;10.17;;;;;;;14.51;85.79;92700.78;5079353;28;20193;-73
2022/05/18 01:01:03;;;;;;;10.33;9.83;;;;;;;14.76;84.48;92718.56;5078184;28;20244;-73
2022/05/18 01:03:34;;;;;;;11.13;10.53;;;;;;;14.79;84.33;92714.53;5079833;28;20185;-73
2022/05/18 01:06:07;;;;;;;10.70;10.10;;;;;;;14.77;88.45;92714.09;5082075;28;20231;-73
2022/05/18 01:08:42;;;;;;;9.30;8.77;;;;;;;14.60;85.59;92711.34;5080325;28;20677;-73
2022/05/18 01:11:07;;;;;;;9.80;9.30;;;;;;;14.61;86.56;92705.81;5077627;28;20220;-74
2022/05/18 01:13:33;;;;;;;9.67;9.10;;;;;;;14.48;84.75;92704.78;5082219;28;20272;-74
2022/05/18 01:15:59;;;;;;;10.50;9.90;;;;;;;14.51;88.54;92692.16;5081431;28;20237;-74
2022/05/18 01:18:25;;;;;;;9.97;9.23;;;;;;;14.38;87.41;92699.78;5079946;28;20195;-74
2022/05/18 01:20:51;;;;;;;10.20;9.60;;;;;;;14.36;89.49;92699.31;5078422;28;20228;-74
2022/05/18 01:23:36;;;;;;;9.70;9.10;;;;;;;14.33;89.81;92689.38;5080908;28;20219;-73
2022/05/18 01:26:16;;;;;;;10.07;9.30;;;;;;;14.31;89.20;92685.50;5080666;28;20224;-74
2022/05/18 01:28:56;;;;;;;10.17;9.57;;;;;;;14.32;90.39;92687.84;5079513;28;20218;-74
2022/05/18 01:31:41;;;;;;;9.17;8.67;;;;;;;14.44;91.27;92677.56;5081439;28;20228;-74
2022/05/18 01:34:06;;;;;;;10.27;9.67;;;;;;;14.29;90.82;92682.41;5078737;28;20209;-73
2022/05/18 01:36:32;;;;;;;10.77;10.17;;;;;;;14.29;92.00;92677.94;5079584;28;20252;-73
2022/05/18 01:38:57;;;;;;;11.07;10.33;;;;;;;14.11;92.27;92663.09;5078339;28;20203;-74
2022/05/18 01:41:27;;;;;;;11.03;10.37;;;;;;;14.32;92.86;92684.41;5079356;28;20220;-74
2022/05/18 01:44:01;;;;;;;11.07;10.37;;;;;;;14.16;91.92;92678.72;5078807;28;20201;-73
2022/05/18 01:46:31;;;;;;;11.53;10.73;;;;;;;14.36;92.80;92685.41;5081036;28;20256;-73
2022/05/18 01:48:56;;;;;;;11.60;10.80;;;;;;;14.37;90.31;92679.84;5079435;28;20256;-74
2022/05/18 01:51:22;;;;;;;11.33;10.63;;;;;;;14.29;92.99;92680.56;5079313;28;20220;-74
2022/05/18 01:53:47;;;;;;;10.37;9.87;;;;;;;14.29;87.38;92683.19;5077550;28;20221;-73
2022/05/18 01:56:12;;;;;;;8.33;7.93;;;;;;;14.20;85.56;92650.03;5080466;28;20224;-74
2022/05/18 01:58:38;;;;;;;8.93;8.53;;;;;;;14.26;84.75;92668.03;5080052;28;20220;-74
2022/05/18 02:01:04;;;;;;;10.07;9.57;;;;;;;14.36;84.92;92673.06;5078872;28;20243;-74
2022/05/18 02:03:29;;;;;;;8.53;8.13;;;;;;;14.38;87.45;92665.63;5075679;28;20204;-73
2022/05/18 02:05:55;;;;;;;8.87;8.37;;;;;;;14.22;90.17;92651.28;5077677;28;20328;-74
2022/05/18 02:08:22;;;;;;;8.50;8.00;;;;;;;14.27;92.46;92669.56;5076879;28;20244;-74
2022/05/18 02:10:48;;;;;;;9.33;8.73;;;;;;;14.25;93.16;92666.47;5079339;28;20243;-74
2022/05/18 02:13:14;;;;;;;8.73;8.33;;;;;;;14.13;89.13;92660.94;5078446;28;20213;-73
2022/05/18 02:15:39;;;;;;;9.13;8.73;;;;;;;14.13;92.29;92673.31;5079688;28;20248;-73
2022/05/18 02:18:05;;;;;;;10.57;9.63;;;;;;;14.14;87.12;92673.00;5077496;28;20180;-74
2022/05/18 02:20:31;;;;;;;9.23;8.73;;;;;;;14.45;83.66;92676.50;5078721;28;20243;-74
2022/05/18 02:22:56;;;;;;;9.90;9.27;;;;;;;14.57;82.88;92662.03;5080485;28;20181;-73
2022/05/18 02:25:22;;;;;;;11.87;11.07;;;;;;;14.96;80.61;92657.56;5080303;28;20231;-73
2022/05/18 02:27:47;;;;;;;11.03;10.23;;;;;;;14.79;84.17;92648.84;5081325;28;20253;-73
2022/05/18 02:30:15;;;;;;;12.20;11.27;;;;;;;14.89;82.73;92673.03;5081209;28;20227;-73
2022/05/18 02:32:40;;;;;;;11.77;10.87;;;;;;;14.89;83.08;92659.88;5078440;28;20205;-73
2022/05/18 02:35:07;;;;;;;13.77;12.60;;;;;;;15.00;82.76;92671.69;5079680;28;20192;-73
2022/05/18 02:37:33;;;;;;;13.87;12.57;;;;;;;15.05;81.30;92636.59;5080545;28;20194;-72
2022/05/18 02:39:59;;;;;;;14.40;13.00;;;;;;;15.36;80.05;92666.22;5076566;28;20253;-73
2022/05/18 02:42:24;;;;;;;14.07;12.93;;;;;;;15.33;81.49;92669.47;5080746;28;20194;-73
2022/05/18 02:44:50;;;;;;;14.63;13.43;;;;;;;15.18;82.51;92675.91;5075411;28;20223;-73
2022/05/18 02:47:17;;;;;;;15.23;13.83;;;;;;;15.28;82.15;92677.50;5076861;28;20277;-74
2022/05/18 02:49:42;;;;;;;14.40;13.10;;;;;;;15.14;82.81;92675.00;5075011;28;20200;-73
2022/05/18 02:52:08;;;;;;;15.27;14.03;;;;;;;15.23;82.96;92670.53;5077587;28;20267;-72
2022/05/18 02:57:19;;;;;;;12.80;11.83;;;;;;;15.36;83.56;92679.38;5048929;28;20233;-72
2022/05/18 02:59:45;;;;;;;13.43;12.33;;;;;;;15.42;80.64;92678.19;5048638;28;20214;-73
2022/05/18 03:02:11;;;;;;;12.53;11.53;;;;;;;15.49;81.05;92667.97;5068681;28;20272;-74
2022/05/18 03:04:36;;;;;;;12.20;11.30;;;;;;;15.55;81.50;92677.28;5068569;28;20625;-73
2022/05/18 03:07:02;;;;;;;11.63;10.73;;;;;;;15.33;80.91;92672.84;5080591;28;20271;-73
2022/05/18 03:09:27;;;;;;;12.90;11.93;;;;;;;15.35;81.23;92678.59;5075484;28;20222;-73
2022/05/18 03:11:53;;;;;;;12.03;11.23;;;;;;;15.43;81.43;92685.00;5080793;28;20232;-73
2022/05/18 03:14:19;;;;;;;12.17;11.20;;;;;;;15.43;82.31;92677.09;5078477;28;20189;-73
2022/05/18 03:16:45;;;;;;;11.67;10.80;;;;;;;15.35;83.14;92683.06;5076931;28;20233;-73
2022/05/18 03:19:14;;;;;;;11.20;10.40;;;;;;;15.38;83.18;92690.38;5080073;28;20219;-73
2022/05/18 03:24:24;;;;;;;11.87;11.00;;;;;;;15.40;84.69;92690.88;5059120;28;20201;-73
2022/05/18 03:26:50;;;;;;;12.07;11.10;;;;;;;15.28;82.10;92667.75;5072532;28;20291;-73
2022/05/18 03:29:17;;;;;;;11.00;10.27;;;;;;;15.56;82.12;92699.91;5079392;28;20215;-73
2022/05/18 03:31:43;;;;;;;10.87;10.07;;;;;;;15.45;80.17;92667.06;5081425;28;20240;-73
2022/05/18 03:34:08;;;;;;;11.00;10.20;;;;;;;15.81;79.44;92722.88;5078338;28;20228;-73
2022/05/18 03:36:34;;;;;;;11.43;10.63;;;;;;;15.81;77.86;92701.81;5076609;28;20241;-73
2022/05/18 03:39:01;;;;;;;11.10;10.40;;;;;;;15.95;78.83;92712.97;5079051;28;20188;-74
2022/05/18 03:41:26;;;;;;;10.70;10.00;;;;;;;15.86;78.28;92720.06;5080288;28;20228;-73
2022/05/18 03:43:52;;;;;;;10.80;10.17;;;;;;;16.02;77.94;92721.19;5078946;28;20215;-73
2022/05/18 03:46:17;;;;;;;11.07;10.37;;;;;;;15.88;78.78;92729.22;5075342;28;20250;-73
2022/05/18 03:48:44;;;;;;;10.57;9.97;;;;;;;15.76;79.56;92709.84;5075082;28;20210;-74
2022/05/18 03:51:11;;;;;;;10.17;9.57;;;;;;;15.91;79.55;92735.72;5077571;28;20220;-73
2022/05/18 03:53:37;;;;;;;12.37;11.47;;;;;;;15.99;81.14;92737.59;5078839;28;20233;-77
2022/05/18 03:56:03;;;;;;;11.77;10.97;;;;;;;15.67;80.21;92714.31;5076595;28;20224;-80
2022/05/18 03:58:29;;;;;;;12.17;11.37;;;;;;;15.85;80.87;92726.44;5073978;28;20193;-79
2022/05/18 04:00:55;;;;;;;10.97;10.27;;;;;;;15.97;80.33;92735.28;5075592;28;20253;-75
2022/05/18 04:03:24;;;;;;;12.03;11.23;;;;;;;15.88;79.81;92731.06;5075571;28;20260;-80
2022/05/18 04:05:51;;;;;;;10.77;10.07;;;;;;;15.97;79.12;92731.84;5082410;28;20229;-79
2022/05/18 04:08:17;;;;;;;11.83;10.93;;;;;;;15.91;79.72;92706.75;5081133;28;20196;-85
2022/05/18 04:10:43;;;;;;;11.63;10.60;;;;;;;16.13;79.52;92732.97;5078560;28;20239;-79
2022/05/18 04:13:18;;;;;;;11.80;10.90;;;;;;;16.21;78.85;92724.31;5077343;28;20205;-85
2022/05/18 04:15:44;;;;;;;11.80;11.00;;;;;;;16.04;79.12;92721.66;5077733;28;20243;-77
2022/05/18 04:18:09;;;;;;;11.57;10.57;;;;;;;16.01;78.92;92727.53;5076671;28;20173;-76
2022/05/18 04:20:35;;;;;;;11.13;10.47;;;;;;;16.07;78.67;92739.47;5078178;28;20280;-74
2022/05/18 04:23:01;;;;;;;11.67;10.87;;;;;;;16.12;79.10;92739.34;5076158;28;20190;-76
2022/05/18 04:25:29;;;;;;;11.17;10.37;;;;;;;16.16;79.56;92744.75;5076127;28;20224;-77
2022/05/18 04:27:55;;;;;;;11.77;10.97;;;;;;;16.11;79.77;92743.03;5076987;28;20188;-72
2022/05/18 04:30:24;;;;;;;11.97;10.97;;;;;;;16.45;79.90;92748.34;5073051;28;20228;-78
2022/05/18 04:32:49;;;;;;;12.17;11.23;;;;;;;16.23;79.60;92731.91;5078609;28;20201;-73
2022/05/18 04:35:19;;;;;;;12.27;11.37;;;;;;;15.98;80.74;92741.31;5078548;28;20235;-73
2022/05/18 04:37:45;;;;;;;13.77;12.67;;;;;;;16.08;80.83;92748.16;5081565;28;20181;-72
2022/05/18 04:40:11;;;;;;;13.30;12.23;;;;;;;16.19;80.85;92750.16;5081917;28;20186;-72
2022/05/18 04:42:37;;;;;;;12.60;11.60;;;;;;;16.29;79.38;92717.47;5078627;28;20181;-73
2022/05/18 04:45:05;;;;;;;13.57;12.47;;;;;;;16.25;80.72;92754.19;5081090;28;20196;-73
2022/05/18 04:47:31;;;;;;;11.57;10.77;;;;;;;16.06;81.35;92740.56;5079123;28;20192;-73
2022/05/18 04:49:57;;;;;;;13.03;12.03;;;;;;;16.10;80.32;92741.50;5080123;28;20185;-73
2022/05/18 04:52:23;;;;;;;12.10;11.07;;;;;;;16.24;81.28;92742.13;5080750;28;20240;-73
2022/05/18 04:54:49;;;;;;;12.47;11.50;;;;;;;16.48;81.05;92742.47;5081164;28;20192;-74
2022/05/18 04:57:15;;;;;;;13.07;12.10;;;;;;;16.22;80.38;92728.47;5078304;28;20253;-73
2022/05/18 04:59:41;;;;;;;13.67;12.60;;;;;;;16.47;78.93;92743.53;5079033;28;20190;-74
2022/05/18 05:02:07;;;;;;;13.93;12.67;;;;;;;16.81;79.42;92730.31;5080383;28;20213;-72
2022/05/18 05:04:33;;;;;;;13.40;12.30;;;;;;;16.73;77.21;92744.28;5078377;28;20190;-74
2022/05/18 05:06:59;;;;;;;13.70;12.60;;;;;;;17.20;77.68;92737.22;5081851;28;20229;-74
2022/05/18 05:09:24;;;;;;;14.10;12.90;;;;;;;16.97;76.60;92747.22;5082838;28;20253;-74
2022/05/18 05:11:51;;;;;;;13.10;12.10;;;;;;;16.84;79.13;92745.53;5081651;28;20233;-72
2022/05/18 05:14:18;;;;;;;14.07;12.50;;;;;;;16.30;79.89;92746.16;5079705;28;20251;-73
2022/05/18 05:16:43;;;;;;;14.63;13.33;;;;;;;16.27;82.56;92752.03;5081721;28;20233;-73
2022/05/18 05:19:09;;;;;;;15.00;13.77;;;;;;;16.34;82.49;92762.13;5077883;28;20181;-74
2022/05/18 05:21:36;;;;;;;14.63;13.43;;;;;;;15.89;83.26;92751.84;5078245;28;20296;-74
2022/05/18 05:24:02;;;;;;;14.27;13.17;;;;;;;16.06;83.77;92759.00;5079801;28;20194;-74
2022/05/18 05:26:28;;;;;;;14.73;13.40;;;;;;;16.32;84.96;92761.66;5081239;28;20225;-72
2022/05/18 05:28:53;;;;;;;15.40;14.00;;;;;;;16.22;82.92;92765.34;5077927;28;20192;-74
2022/05/18 05:31:19;;;;;;;14.47;13.37;;;;;;;16.22;82.31;92765.34;5080952;28;20264;-73
2022/05/18 05:33:44;;;;;;;13.13;11.97;;;;;;;16.23;82.55;92758.25;5079097;28;20219;-74
2022/05/18 05:36:10;;;;;;;14.17;12.90;;;;;;;16.01;81.81;92765.19;5080025;28;20282;-74
2022/05/18 05:38:35;;;;;;;14.33;13.17;;;;;;;16.23;82.59;92760.88;5079613;28;20161;-74
2022/05/18 05:41:01;;;;;;;15.00;13.80;;;;;;;16.01;83.96;92772.31;5078181;28;20228;-73
2022/05/18 05:43:31;;;;;;;14.27;13.17;;;;;;;15.81;84.85;92773.66;5081287;28;20219;-73
2022/05/18 05:45:59;;;;;;;15.27;13.90;;;;;;;15.95;85.33;92771.66;5079293;28;20217;-73
2022/05/18 05:48:25;;;;;;;15.63;14.23;;;;;;;16.03;86.47;92770.16;5077284;28;20275;-73
2022/05/18 05:50:50;;;;;;;15.07;13.70;;;;;;;15.63;86.52;92768.63;5081153;28;20463;-74
2022/05/18 05:53:16;;;;;;;14.13;12.90;;;;;;;15.70;86.99;92776.88;5080120;28;20229;-74
2022/05/18 05:55:41;;;;;;;14.93;13.43;;;;;;;15.66;87.12;92778.56;5076068;28;20252;-74
2022/05/18 05:58:07;;;;;;;13.77;12.57;;;;;;;15.52;88.01;92783.16;5079910;28;20189;-73
2022/05/18 06:00:32;;;;;;;13.27;12.27;;;;;;;15.53;90.07;92792.59;5076954;28;20231;-73
2022/05/18 06:02:58;;;;;;;12.83;11.93;;;;;;;15.29;91.98;92774.53;5078098;28;20181;-78
2022/05/18 06:05:23;;;;;;;13.67;12.60;;;;;;;15.23;92.77;92793.34;5076110;28;20307;-82
2022/05/18 06:07:49;;;;;;;12.30;11.40;;;;;;;15.08;93.08;92802.41;5076785;28;20208;-81
2022/05/18 06:10:15;;;;;;;12.37;11.47;;;;;;;14.90;94.22;92786.81;5075605;28;20307;-81
2022/05/18 06:12:40;;;;;;;11.30;10.47;;;;;;;15.18;96.23;92809.25;5077793;28;20209;-86
2022/05/18 06:15:08;;;;;;;12.40;11.43;;;;;;;14.91;97.59;92817.31;5079221;28;20185;-83
2022/05/18 06:17:33;;;;;;;12.57;11.77;;;;;;;14.96;97.60;92825.09;5077928;28;20165;-83
2022/05/18 06:19:59;;;;;;;10.67;9.97;;;;;;;14.89;99.09;92828.13;5078905;28;20199;-81
2022/05/18 06:22:27;;;;;;;16.53;15.27;;;;;;;14.86;97.38;92820.84;5070014;28;20178;-82
2022/05/18 06:24:53;;;;;;;12.50;11.63;;;;;;;14.64;97.39;92810.31;5075356;28;20192;-80
2022/05/18 06:27:20;;;;;;;12.63;11.77;;;;;;;14.70;100.00;92813.59;5078368;28;20196;-78
2022/05/18 06:29:47;;;;;;;12.43;11.53;;;;;;;14.82;100.00;92817.22;5072229;28;20177;-78
2022/05/18 06:32:14;;;;;;;13.20;12.30;;;;;;;14.65;97.81;92826.84;5076259;28;20212;-78
2022/05/18 06:34:39;;;;;;;13.23;12.33;;;;;;;14.39;100.00;92806.41;5073058;28;20200;-80
2022/05/18 06:37:05;;;;;;;12.53;11.73;;;;;;;14.47;98.47;92802.28;5074652;28;20217;-78
2022/05/18 06:39:30;;;;;;;12.27;11.43;;;;;;;13.88;99.24;92714.00;5079093;28;20241;-77
2022/05/18 06:41:57;;;;;;;12.10;11.30;;;;;;;14.56;99.69;92834.66;5080934;28;20251;-78
2022/05/18 06:44:24;;;;;;;12.77;11.77;;;;;;;14.61;100.00;92833.78;5074135;28;20189;-78
2022/05/18 06:46:50;;;;;;;12.87;11.87;;;;;;;14.74;96.97;92830.31;5075545;28;20209;-79
2022/05/18 06:49:16;;;;;;;14.00;12.90;;;;;;;14.70;97.56;92824.88;5078025;28;20192;-79
2022/05/18 06:51:43;;;;;;;12.53;11.57;;;;;;;14.96;99.19;92833.72;5078594;28;20221;-79
2022/05/18 06:54:10;;;;;;;13.07;12.03;;;;;;;15.00;96.40;92832.06;5076416;28;20213;-79
2022/05/18 06:56:38;;;;;;;14.57;13.33;;;;;;;14.90;97.53;92839.41;5075373;28;20307;-80
2022/05/18 06:59:04;;;;;;;14.13;12.93;;;;;;;14.78;96.07;92836.53;5079199;28;20197;-78
2022/05/18 07:01:30;;;;;;;14.53;13.33;;;;;;;14.81;94.34;92831.47;5078924;28;20303;-81
2022/05/18 07:03:57;;;;;;;13.47;12.27;;;;;;;14.94;94.54;92843.00;5077879;28;20208;-79
2022/05/18 07:06:24;;;;;;;14.67;13.57;;;;;;;14.94;95.97;92837.75;5077554;28;20221;-79
2022/05/18 07:08:51;;;;;;;14.53;13.43;;;;;;;15.05;94.93;92836.44;5076273;28;20259;-79
2022/05/18 07:11:18;;;;;;;13.80;12.80;;;;;;;15.12;92.50;92842.81;5077209;28;20217;-80
2022/05/18 07:13:46;;;;;;;14.67;13.50;;;;;;;15.11;92.47;92824.69;5074723;28;20212;-80
2022/05/18 07:16:12;;;;;;;14.00;13.00;;;;;;;15.54;92.80;92834.41;5073209;28;20517;-81
2022/05/18 07:18:38;;;;;;;13.90;12.90;;;;;;;15.46;91.17;92837.78;5080362;28;20184;-80
2022/05/18 07:21:06;;;;;;;13.90;12.57;;;;;;;15.33;88.87;92840.47;5073666;28;20231;-79
2022/05/18 07:23:32;;;;;;;15.27;14.17;;;;;;;15.69;90.08;92825.31;5075963;28;20191;-79
2022/05/18 07:25:59;;;;;;;13.30;12.27;;;;;;;15.72;86.31;92841.28;5077535;28;20248;-77
2022/05/18 07:28:25;;;;;;;14.33;12.87;;;;;;;15.67;88.63;92853.81;5077152;28;20180;-80
2022/05/18 07:30:52;;;;;;;13.47;12.37;;;;;;;15.84;89.46;92846.00;5075230;28;20232;-78
2022/05/18 07:33:20;;;;;;;13.70;12.60;;;;;;;15.95;87.51;92858.56;5071581;28;20227;-78
2022/05/18 07:35:46;;;;;;;12.70;11.80;;;;;;;15.92;85.95;92856.53;5077029;28;20774;-80
2022/05/18 07:38:12;;;;;;;14.00;12.87;;;;;;;15.93;87.19;92860.75;5074911;28;20192;-78
2022/05/18 07:40:38;;;;;;;13.90;12.63;;;;;;;15.95;85.03;92865.72;5074907;28;20233;-79
2022/05/18 07:43:04;;;;;;;12.53;11.43;;;;;;;15.75;85.87;92869.63;5075411;28;20204;-79
2022/05/18 07:45:29;;;;;;;13.07;11.90;;;;;;;15.66;86.42;92868.03;5073756;28;20220;-79
2022/05/18 07:47:55;;;;;;;13.57;12.40;;;;;;;15.90;83.81;92853.47;5077261;28;20199;-79
2022/05/18 07:50:22;;;;;;;13.40;12.30;;;;;;;15.99;84.18;92879.81;5076561;28;20217;-78
2022/05/18 07:52:49;;;;;;;12.87;11.87;;;;;;;16.27;84.52;92880.34;5075227;28;20291;-79
2022/05/18 07:55:15;;;;;;;13.13;12.13;;;;;;;16.49;83.66;92869.75;5074318;28;20235;-78
2022/05/18 07:57:41;;;;;;;12.40;11.60;;;;;;;16.42;82.39;92885.22;5075947;28;20204;-79
2022/05/18 08:00:08;;;;;;;12.97;11.97;;;;;;;16.41;81.52;92884.44;5073870;28;20200;-80
2022/05/18 08:02:34;;;;;;;12.07;11.07;;;;;;;16.07;81.67;92884.34;5075266;28;20193;-80
2022/05/18 08:05:00;;;;;;;11.80;10.90;;;;;;;16.14;81.65;92891.81;5075886;28;20311;-80
2022/05/18 08:07:26;;;;;;;12.13;11.33;;;;;;;16.33;80.69;92897.59;5073618;28;20189;-80
2022/05/18 08:15:20;;;;;;;12.80;11.80;;;;;;;16.63;79.34;92902.03;5053780;28;20251;-80
2022/05/18 08:17:46;;;;;;;11.57;10.57;;;;;;;17.39;79.33;92888.84;5063133;28;20177;-82
2022/05/18 08:20:14;;;;;;;11.90;11.10;;;;;;;17.55;76.54;92903.16;5059632;28;23409;-83
2022/05/18 08:22:43;;;;;;;11.60;10.70;;;;;;;17.56;74.58;92899.41;5080738;28;20209;-82
2022/05/18 08:25:10;;;;;;;12.10;11.10;;;;;;;17.57;76.88;92894.91;5079315;28;20186;-81
2022/05/18 08:27:49;;;;;;;12.57;11.63;;;;;;;17.75;75.74;92891.13;5080598;28;20182;-79
2022/05/18 08:30:19;;;;;;;12.40;11.40;;;;;;;18.05;74.23;92890.13;5075896;28;20217;-76
2022/05/18 08:32:45;;;;;;;11.40;10.60;;;;;;;17.12;74.60;92907.66;5078183;28;20208;-75
2022/05/18 08:35:13;;;;;;;11.37;10.63;;;;;;;17.80;74.90;92903.41;5073276;28;20197;-77
2022/05/18 08:37:47;;;;;;;11.43;10.63;;;;;;;17.42;72.93;92898.00;5079672;28;20192;-76
2022/05/18 08:40:28;;;;;;;11.43;10.63;;;;;;;17.25;75.41;92905.94;5075169;28;20233;-76
2022/05/18 08:42:55;;;;;;;11.57;10.77;;;;;;;17.49;74.24;92899.09;5076702;28;20173;-76
2022/05/18 08:45:23;;;;;;;11.17;10.47;;;;;;;17.97;71.83;92898.06;5079793;28;20232;-76
2022/05/18 08:48:02;;;;;;;10.93;10.20;;;;;;;17.79;71.87;92876.19;5080053;28;20215;-76
2022/05/18 08:50:28;;;;;;;12.50;11.60;;;;;;;17.39;71.85;92891.50;5076679;28;20239;-76
2022/05/18 08:53:44;;;;;;;11.83;11.07;;;;;;;17.48;70.08;92900.19;5079317;28;20239;-77
2022/05/18 08:56:22;;;;;;;12.00;11.30;;;;;;;17.84;71.58;92896.41;4997263;28;20287;-76
2022/05/18 08:58:53;;;;;;;11.97;11.17;;;;;;;18.45;71.44;92911.72;4999246;28;20197;-77
2022/05/18 09:01:40;;;;;;;10.90;10.30;;;;;;;17.73;68.62;92903.13;5032698;28;20221;-77
2022/05/18 09:04:13;;;;;;;11.47;10.77;;;;;;;17.80;70.52;92898.13;5057702;28;20713;-75
2022/05/18 09:06:45;;;;;;;11.13;10.33;;;;;;;18.08;69.24;92904.53;5071928;28;20259;-74
2022/05/18 09:12:04;;;;;;;10.27;9.67;;;;;;;18.22;69.39;92892.69;5080207;28;20244;-76
2022/05/18 09:14:37;;;;;;;11.60;10.90;;;;;;;19.01;68.43;92890.06;5077369;28;20198;-76
2022/05/18 09:17:28;;;;;;;10.93;10.23;;;;;;;19.02;69.89;92892.38;5079388;28;20220;-76
2022/05/18 09:20:20;;;;;;;11.60;10.80;;;;;;;18.63;69.27;92892.03;5078348;28;20279;-76
2022/05/18 09:23:10;;;;;;;10.33;9.63;;;;;;;19.09;68.46;92891.88;5079006;28;20191;-76
2022/05/18 09:25:57;;;;;;;10.23;9.60;;;;;;;19.42;67.38;92873.41;5081890;28;20240;-76
2022/05/18 09:28:41;;;;;;;10.80;10.20;;;;;;;19.47;68.15;92881.91;5079118;28;20201;-75
2022/05/18 09:31:06;;;;;;;11.77;11.07;;;;;;;19.43;68.54;92875.72;5076572;28;20227;-76
2022/05/18 09:33:46;;;;;;;10.63;9.93;;;;;;;19.28;69.59;92841.91;5078828;28;20223;-76
2022/05/18 09:36:15;;;;;;;10.20;9.60;;;;;;;19.61;68.70;92869.13;5079219;28;20236;-76
2022/05/18 09:38:50;;;;;;;9.83;9.23;;;;;;;19.36;65.21;92864.91;5079644;28;20211;-76
2022/05/18 09:41:22;;;;;;;10.33;9.73;;;;;;;19.52;66.01;92867.69;5079430;28;20230;-76
2022/05/18 09:44:06;;;;;;;10.20;9.50;;;;;;;19.45;64.92;92876.16;5070522;28;20221;-76
2022/05/18 09:46:32;;;;;;;9.87;9.30;;;;;;;19.80;64.33;92842.91;5107037;28;20229;-76
2022/05/18 09:49:56;;;;;;;10.90;10.20;;;;;;;20.16;62.56;92858.91;5077448;28;20194;-80
2022/05/18 09:52:28;;;;;;;9.80;9.17;;;;;;;19.67;63.44;92849.31;5009553;28;20256;-76
2022/05/18 09:55:00;;;;;;;9.73;9.13;;;;;;;19.62;62.50;92851.38;5021892;28;20209;-75
2022/05/18 09:57:45;;;;;;;10.40;9.70;;;;;;;19.75;62.49;92855.63;5054187;28;20198;-76
2022/05/18 10:00:20;;;;;;;10.70;10.10;;;;;;;20.28;62.49;92858.91;5077880;28;20196;-75
2022/05/18 10:08:30;;;;;;;10.20;9.60;;;;;;;20.11;61.41;92860.97;5079120;28;20217;-75
2022/05/18 10:11:03;;;;;;;10.30;9.70;;;;;;;19.93;62.45;92889.53;5076436;28;20295;-75
2022/05/18 10:13:33;;;;;;;10.37;9.67;;;;;;;20.06;61.49;92883.16;5078631;28;20215;-74
2022/05/18 10:16:33;;;;;;;10.27;9.60;;;;;;;19.84;61.98;92870.31;5074619;28;20223;-75
2022/05/18 10:19:03;;;;;;;9.57;9.07;;;;;;;19.70;61.64;92885.75;5077284;28;20183;-75
2022/05/18 10:21:41;;;;;;;9.50;9.00;;;;;;;19.24;62.45;92907.16;5076851;28;20249;-75
2022/05/18 10:24:37;;;;;;;10.63;9.93;;;;;;;19.18;62.40;92900.50;5073351;28;20235;-75
2022/05/18 10:27:41;;;;;;;9.90;9.30;;;;;;;18.71;64.51;92910.47;5076913;28;20242;-76
2022/05/18 10:30:30;;;;;;;8.93;8.50;;;;;;;18.59;62.51;92906.97;5074872;28;20182;-77
2022/05/18 10:33:03;;;;;;;9.33;8.80;;;;;;;18.47;64.71;92918.25;5074814;28;20218;-75
2022/05/18 10:35:52;;;;;;;9.50;9.00;;;;;;;18.23;65.64;92923.28;5075807;28;20230;-76
2022/05/18 10:38:24;;;;;;;10.03;9.47;;;;;;;17.89;65.46;92920.00;5076084;28;20891;-77
2022/05/18 10:41:05;;;;;;;9.27;8.77;;;;;;;17.63;67.04;92931.38;5077694;28;20341;-76
2022/05/18 10:43:33;;;;;;;10.10;9.60;;;;;;;17.39;68.62;92941.63;5076783;28;20192;-76
2022/05/18 10:46:25;;;;;;;9.90;9.40;;;;;;;17.46;69.74;92972.88;5077621;28;20245;-76
2022/05/18 10:49:25;;;;;;;10.70;10.00;;;;;;;16.79;74.85;92954.03;5068124;28;20277;-75
2022/05/18 10:51:55;;;;;;;9.20;8.70;;;;;;;16.33;78.65;92960.84;5073083;28;20715;-75
2022/05/18 10:54:30;;;;;;;10.23;9.63;;;;;;;16.23;82.80;92958.47;5075063;28;20209;-74
2022/05/18 10:57:34;;;;;;;9.47;8.97;;;;;;;15.62;90.79;92983.69;5077063;28;20232;-74
2022/05/18 11:00:18;;;;;;;11.20;10.50;;;;;;;15.44;94.87;93002.31;5044529;28;20201;-73
2022/05/18 11:02:50;;;;;;;11.40;10.37;;;;;;;14.74;99.98;93007.19;5079554;28;20216;-75
2022/05/18 11:05:16;;;;;;;10.33;9.63;;;;;;;14.62;100.00;93000.84;5076684;28;20254;-74
2022/05/18 11:07:45;;;;;;;10.43;9.63;;;;;;;14.55;96.88;92989.97;5074853;28;20219;-74
2022/05/18 11:10:14;;;;;;;9.53;9.03;;;;;;;14.20;99.02;92992.19;5075356;28;20209;-75
2022/05/18 11:12:58;;;;;;;10.07;9.57;;;;;;;14.24;99.87;93001.06;5078749;28;20220;-74
2022/05/18 11:16:05;;;;;;;9.77;9.27;;;;;;;14.37;100.00;93002.13;5075152;28;20225;-75
2022/05/18 11:18:34;;;;;;;10.07;9.47;;;;;;;14.75;99.50;93003.50;5049915;28;20195;-74
2022/05/18 11:21:28;;;;;;;9.87;9.43;;;;;;;14.90;98.73;93000.53;5076054;28;20237;-75
2022/05/18 11:24:23;;;;;;;10.27;9.67;;;;;;;15.16;98.69;93011.31;5073390;28;20208;-74
2022/05/18 11:27:25;;;;;;;9.67;9.00;;;;;;;15.34;96.09;93013.00;5076676;28;20240;-75
2022/05/18 11:29:57;;;;;;;10.20;9.60;;;;;;;15.46;97.35;93011.44;5073877;28;20204;-76
2022/05/18 11:32:58;;;;;;;10.53;9.93;;;;;;;15.28;93.79;93024.72;5068950;28;20221;-75
2022/05/18 11:36:10;;;;;;;9.47;9.03;;;;;;;15.28;95.36;93020.25;5070986;28;20232;-75
2022/05/18 11:39:06;;;;;;;9.10;8.70;;;;;;;15.24;93.97;93019.28;5078604;28;20183;-76
2022/05/18 11:41:41;;;;;;;10.60;10.10;;;;;;;15.35;92.21;93025.88;5074807;28;20213;-76
2022/05/18 11:44:11;;;;;;;10.00;9.50;;;;;;;15.45;92.71;93032.78;5075588;28;20193;-75
2022/05/18 11:47:06;;;;;;;9.33;8.87;;;;;;;15.57;94.03;93030.41;5075575;28;20316;-75
2022/05/18 11:49:57;;;;;;;9.60;9.00;;;;;;;15.37;92.74;93041.34;5059328;28;20203;-75
2022/05/18 11:52:37;;;;;;;9.70;9.30;;;;;;;15.30;93.39;93039.13;5077837;28;20240;-75
2022/05/18 11:55:23;;;;;;;10.00;9.60;;;;;;;15.13;94.21;93043.47;5076510;28;20228;-75